首页
METAR-TAF:

METAR-TAF

机场 :

Air Force Base

Langley, 弗吉尼亚州, 美国

纬度: 37-05N, 经度: 076-21W, 海拔: 3米

当前天气观测

该预报发布于26分钟前的09:29 UTC
静风
温度 7°C
湿度 100%
气压 1024 hPa
能見度: 4.8公里
多云层高于700英尺
阴天层高于4000英尺
雨, 轻雾

METAR: KLFI 150929Z 00000KT 3SM RA BR BKN007 OVC040 07/07 A3024 RMK AO2A SLP247

时间: 04:55 (09:55 UTC)

预报

该预报发布于1小时和15分钟前的08:40 UTC
预报有效从15日的 08点(UTC)到 16日的 08点(UTC)
风速6节,风向
能見度: 4800
多云层高于500英尺
阴天层高于2000英尺
阵雨, 轻雾
成为
从 15日的 17点(UTC)到 15日的 18点(UTC)
风速12节,风向北转东北
能见度10公里或以上
多云层高于2000英尺
成为
从 16日的 05点(UTC)到 16日的 06点(UTC)
风速15节,风向,有时为25节阵风
能见度10公里或以上
多云层高于3000英尺
成为
从 16日的 07点(UTC)到 16日的 08点(UTC)
风速25节,风向,有时为35节阵风
能见度10公里或以上
多云层高于2000英尺
阴天层高于3000英尺

TAF: KLFI 150840Z 1508/1608 35006KT 4800 SHRA BR BKN005 OVC020 QNH3022INS BECMG 1517/1518 02012KT 9999 NSW BKN020 QNH3018INS BECMG 1605/1606 01015G25KT 9999 BKN030 QNH3016INS BECMG 1607/1608 01025G35KT 9999 BKN020 OVC030 QNH3015INS TX10/1516Z TN07/1509Z

超过4000个机场的气象观测和天气预报(METAR&TAF报告)。

可查询的气象台以黄色和红色小点在地图上表示。

将鼠标移到小点上方,可查看气象台名称。

然后点击查看天气观测和预报。

如需切换地图:点击带黑十字的绿色按钮放大地图;点击带横线的绿色按钮缩小地图;或者点击绿色箭头查看邻近地区的地图。


METAR-TAF: